createdAt,value
2022-12-03T01:45:34.028Z,-1.33
2022-12-03T01:48:02.569Z,-1.33
2022-12-03T02:01:14.945Z,-1.33
2022-12-03T02:03:41.837Z,-1.33
2022-12-03T02:22:53.620Z,-1.34
2022-12-03T02:27:55.672Z,-1.38
2022-12-03T02:30:23.072Z,-1.36
2022-12-03T02:32:50.126Z,-1.34
2022-12-03T02:35:18.296Z,-1.25
2022-12-03T02:40:24.830Z,-1.34
2022-12-03T02:45:45.046Z,-1.43
2022-12-03T02:53:47.453Z,-1.50
2022-12-03T03:18:46.359Z,-1.52
2022-12-03T03:28:23.865Z,-1.43
2022-12-03T03:41:41.856Z,-1.42
2022-12-03T03:55:14.606Z,-1.46
2022-12-03T05:26:26.562Z,-1.67
2022-12-03T05:48:35.668Z,-1.69
2022-12-03T05:51:02.376Z,-1.68
2022-12-03T06:01:34.598Z,-1.66
2022-12-03T06:04:01.402Z,-1.66
2022-12-03T06:06:28.161Z,-1.63
2022-12-03T06:23:17.752Z,-1.57
2022-12-03T06:36:47.104Z,-1.56
2022-12-03T06:46:25.734Z,-1.55
2022-12-03T06:48:55.094Z,-1.56
2022-12-03T06:59:56.992Z,-1.55
2022-12-03T07:02:25.116Z,-1.57
2022-12-03T07:04:51.890Z,-1.59
2022-12-03T07:38:13.604Z,-1.73
2022-12-03T07:40:40.326Z,-1.75
2022-12-03T07:43:07.113Z,-1.76
2022-12-03T07:45:41.405Z,-1.71
2022-12-03T07:48:08.361Z,-1.69
2022-12-03T07:56:08.649Z,-1.57
2022-12-03T07:58:35.504Z,-1.54
2022-12-03T08:09:16.439Z,-1.56
2022-12-03T08:11:45.373Z,-1.62
2022-12-03T08:14:15.548Z,-1.61
2022-12-03T08:16:44.893Z,-1.63
2022-12-03T08:22:01.107Z,-1.61
2022-12-03T08:24:29.430Z,-1.57
2022-12-03T08:32:23.016Z,-1.33
2022-12-03T08:37:34.122Z,-1.22
2022-12-03T09:04:32.321Z,-1.01
2022-12-03T09:09:47.632Z,-1.04
2022-12-03T09:15:28.881Z,-1.01
2022-12-03T09:17:55.661Z,-0.88
2022-12-03T09:29:12.055Z,-0.88
2022-12-03T09:32:04.412Z,-0.80
2022-12-03T09:40:02.924Z,-0.75
2022-12-03T09:42:29.495Z,-0.75
2022-12-03T09:45:17.941Z,-0.65
2022-12-03T09:47:46.103Z,-0.69
2022-12-03T09:50:17.251Z,-0.75
2022-12-03T09:52:45.248Z,-0.73
2022-12-03T09:55:12.973Z,-0.70
2022-12-03T09:57:39.478Z,-0.71
2022-12-03T10:00:24.336Z,-0.79
2022-12-03T10:02:51.874Z,-0.70
2022-12-03T10:05:21.583Z,-0.62
2022-12-03T10:07:51.138Z,-0.65
2022-12-03T10:10:18.602Z,-0.64
2022-12-03T10:12:45.113Z,-0.67
2022-12-03T10:15:15.477Z,-0.77
2022-12-03T10:17:42.048Z,-0.72
2022-12-03T10:20:11.145Z,-0.74
2022-12-03T10:22:37.688Z,-0.60
2022-12-03T10:25:06.452Z,-0.51
2022-12-03T10:27:33.017Z,-0.45
2022-12-03T10:30:00.406Z,-0.40
2022-12-03T10:32:44.009Z,-0.34
2022-12-03T10:35:20.815Z,-0.44
2022-12-03T10:37:59.594Z,-0.45
2022-12-03T10:40:27.438Z,-0.50
2022-12-03T10:42:56.420Z,-0.46
2022-12-03T10:45:23.088Z,-0.36
2022-12-03T10:48:06.502Z,-0.39
2022-12-03T10:50:33.229Z,-0.36
2022-12-03T10:52:59.728Z,-0.65
2022-12-03T10:55:26.164Z,-0.66
2022-12-03T10:57:52.723Z,-0.56
2022-12-03T11:00:19.691Z,-0.54
2022-12-03T11:02:49.407Z,-0.47
2022-12-03T11:05:26.847Z,-0.33
2022-12-03T11:07:53.477Z,-0.14
2022-12-03T11:10:20.334Z,-0.32
2022-12-03T11:13:05.712Z,-0.33
2022-12-03T11:15:42.344Z,-0.33
2022-12-03T11:18:08.839Z,-0.36
2022-12-03T11:20:35.353Z,-0.33
2022-12-03T11:23:01.899Z,-0.39
2022-12-03T11:25:28.386Z,-0.37
2022-12-03T11:28:13.360Z,-0.56
2022-12-03T11:30:49.062Z,-0.53
2022-12-03T11:33:31.003Z,-0.57
2022-12-03T11:36:03.712Z,-0.49
2022-12-03T11:38:41.086Z,-0.42
2022-12-03T11:41:07.535Z,-0.48
2022-12-03T11:43:52.521Z,-0.56
2022-12-03T11:46:19.706Z,-0.59
2022-12-03T11:48:46.419Z,-0.65
2022-12-03T11:51:13.907Z,-0.64
2022-12-03T11:53:40.435Z,-0.59
2022-12-03T11:56:08.614Z,-0.52
2022-12-03T11:58:35.663Z,-0.37
2022-12-03T12:01:03.532Z,-0.28
2022-12-03T12:03:33.442Z,-0.31
2022-12-03T12:06:07.458Z,-0.51
2022-12-03T12:08:34.701Z,-0.50
2022-12-03T12:11:01.504Z,-0.34
2022-12-03T12:13:28.102Z,-0.29
2022-12-03T12:15:54.968Z,-0.24
2022-12-03T12:18:41.223Z,-0.08
2022-12-03T12:21:26.644Z,0.01
2022-12-03T12:23:53.271Z,0.00
2022-12-03T12:26:19.828Z,0.08
2022-12-03T12:28:46.419Z,0.05
2022-12-03T12:31:13.007Z,-0.09
2022-12-03T12:33:39.557Z,-0.08
2022-12-03T12:36:08.579Z,0.06
2022-12-03T12:38:35.061Z,0.11
2022-12-03T12:41:04.300Z,0.17
2022-12-03T12:43:32.709Z,0.20
2022-12-03T12:46:13.538Z,0.08
2022-12-03T12:48:46.878Z,-0.08
2022-12-03T12:51:14.557Z,-0.12
2022-12-03T12:53:43.007Z,-0.23
2022-12-03T12:56:26.439Z,-0.26
2022-12-03T12:58:53.436Z,-0.25
2022-12-03T13:01:30.220Z,-0.28
2022-12-03T13:03:56.954Z,-0.39
2022-12-03T13:06:27.611Z,-0.38
2022-12-03T13:08:54.219Z,-0.35
2022-12-03T13:11:38.875Z,-0.27
2022-12-03T13:14:11.446Z,-0.43
2022-12-03T13:16:38.333Z,-0.45
2022-12-03T13:19:12.266Z,-0.40
2022-12-03T13:21:39.761Z,-0.39
2022-12-03T13:24:25.098Z,-0.40
2022-12-03T13:26:51.753Z,-0.37
2022-12-03T13:29:18.796Z,-0.35
2022-12-03T13:31:56.072Z,-0.31
2022-12-03T13:34:23.963Z,-0.28
2022-12-03T13:36:57.537Z,-0.25
2022-12-03T13:39:30.335Z,-0.23
2022-12-03T13:42:15.823Z,-0.28
2022-12-03T13:44:46.147Z,-0.35
2022-12-03T13:47:14.132Z,-0.34
2022-12-03T13:49:40.616Z,-0.34
2022-12-03T13:52:11.163Z,-0.45
2022-12-03T13:54:39.405Z,-0.45
2022-12-03T13:57:06.863Z,-0.50
2022-12-03T13:59:33.386Z,-0.46
2022-12-03T14:02:00.157Z,-0.47
2022-12-03T14:04:26.885Z,-0.45
2022-12-03T14:06:53.563Z,-0.50
2022-12-03T14:09:20.228Z,-0.45
2022-12-03T14:12:05.372Z,-0.47
2022-12-03T14:14:31.933Z,-0.50
2022-12-03T14:17:00.264Z,-0.43
2022-12-03T14:19:27.052Z,-0.42
2022-12-03T14:21:53.644Z,-0.49
2022-12-03T14:24:20.333Z,-0.46
2022-12-03T14:26:46.986Z,-0.46
2022-12-03T14:29:13.752Z,-0.51
2022-12-03T14:31:40.438Z,-0.56
2022-12-03T14:34:07.144Z,-0.55
2022-12-03T14:36:33.820Z,-0.54
2022-12-03T14:39:00.489Z,-0.53
2022-12-03T14:41:45.819Z,-0.59
2022-12-03T14:44:12.544Z,-0.59
2022-12-03T14:46:39.184Z,-0.61
2022-12-03T14:49:05.672Z,-0.59
2022-12-03T14:51:32.223Z,-0.59
2022-12-03T14:53:58.873Z,-0.62
2022-12-03T14:56:25.620Z,-0.61
2022-12-03T14:58:52.343Z,-0.65
2022-12-03T15:01:19.168Z,-0.70
2022-12-03T15:03:45.778Z,-0.76
2022-12-03T15:06:12.457Z,-0.77
2022-12-03T15:08:39.107Z,-0.82
2022-12-03T15:11:05.943Z,-0.81
2022-12-03T15:13:32.827Z,-0.80
2022-12-03T15:15:59.719Z,-0.81
2022-12-03T15:18:26.500Z,-0.78
2022-12-03T15:20:53.139Z,-0.78
2022-12-03T15:23:19.720Z,-0.85
2022-12-03T15:25:46.970Z,-0.89
2022-12-03T15:28:13.525Z,-0.92
2022-12-03T15:30:40.121Z,-0.88
2022-12-03T15:33:06.814Z,-0.94
2022-12-03T15:35:33.883Z,-0.90
2022-12-03T15:38:00.737Z,-0.92
2022-12-03T15:40:27.904Z,-0.95
2022-12-03T15:42:54.723Z,-0.94
2022-12-03T15:45:21.492Z,-0.92
2022-12-03T15:47:48.114Z,-0.94
2022-12-03T15:50:14.883Z,-1.02
2022-12-03T15:52:41.673Z,-1.03
2022-12-03T15:55:08.739Z,-1.05
2022-12-03T15:57:35.450Z,-1.02
2022-12-03T16:00:02.225Z,-1.01
2022-12-03T16:02:33.886Z,-1.02
2022-12-03T16:05:01.247Z,-1.01
2022-12-03T16:07:28.306Z,-1.01
2022-12-03T16:09:55.939Z,-1.02
2022-12-03T16:12:23.295Z,-1.02
2022-12-03T16:14:50.303Z,-0.97
2022-12-03T16:17:17.063Z,-0.99
2022-12-03T16:19:43.834Z,-0.96
2022-12-03T16:22:10.625Z,-0.98
2022-12-03T16:24:37.246Z,-0.99
2022-12-03T16:27:04.076Z,-0.96
2022-12-03T16:29:31.027Z,-0.97
2022-12-03T16:31:58.017Z,-0.99
2022-12-03T16:34:24.713Z,-0.96
2022-12-03T16:36:51.402Z,-0.97
2022-12-03T16:39:18.142Z,-0.98
2022-12-03T16:41:44.786Z,-1.00
2022-12-03T16:44:30.719Z,-1.00
2022-12-03T16:46:57.365Z,-0.99
2022-12-03T16:49:24.253Z,-1.03
2022-12-03T16:51:51.121Z,-1.02
2022-12-03T16:54:17.907Z,-0.99
2022-12-03T16:56:44.700Z,-0.99
2022-12-03T16:59:11.511Z,-1.01
2022-12-03T17:01:47.412Z,-1.04
2022-12-03T17:04:14.355Z,-0.98
2022-12-03T17:06:41.240Z,-1.01
2022-12-03T17:09:08.088Z,-1.01
2022-12-03T17:11:35.320Z,-1.05
2022-12-03T17:14:02.248Z,-1.08
2022-12-03T17:16:29.219Z,-1.10
2022-12-03T17:18:56.162Z,-1.10
2022-12-03T17:21:22.946Z,-1.09
2022-12-03T17:23:51.819Z,-1.01
2022-12-03T17:30:14.720Z,-1.02
2022-12-03T17:32:41.598Z,-1.04
2022-12-03T17:35:08.661Z,-1.04
2022-12-03T17:37:35.306Z,-1.05
2022-12-03T17:40:02.760Z,-1.06
2022-12-03T17:42:29.556Z,-1.07
2022-12-03T17:44:56.422Z,-1.08
2022-12-03T17:47:23.154Z,-1.08
2022-12-03T17:49:49.766Z,-1.06
2022-12-03T17:52:16.555Z,-1.07
2022-12-03T17:55:09.276Z,-1.06
2022-12-03T17:57:30.177Z,-1.06
2022-12-03T17:59:57.421Z,-1.04
2022-12-03T18:02:24.432Z,-1.04
2022-12-03T18:04:51.353Z,-1.04
2022-12-03T18:07:18.225Z,-1.04
2022-12-03T18:09:45.669Z,-1.06
2022-12-03T18:12:13.038Z,-1.07
2022-12-03T18:14:39.992Z,-1.08
2022-12-03T18:17:06.829Z,-1.09
2022-12-03T18:19:33.581Z,-1.11
2022-12-03T18:22:00.450Z,-1.10
2022-12-03T18:24:27.431Z,-1.05
2022-12-03T18:27:03.681Z,-1.07
2022-12-03T18:29:32.803Z,-1.05
2022-12-03T18:32:04.257Z,-1.07
2022-12-03T18:34:32.442Z,-1.08
2022-12-03T18:37:09.410Z,-1.06
2022-12-03T18:39:49.115Z,-1.07
2022-12-03T18:42:17.971Z,-1.07
2022-12-03T18:44:53.462Z,-1.11
2022-12-03T18:50:07.620Z,-1.12
2022-12-03T18:52:34.987Z,-1.13
2022-12-03T18:55:07.129Z,-1.15
2022-12-03T18:57:36.183Z,-1.18
2022-12-03T19:00:11.935Z,-1.20
2022-12-03T19:05:33.916Z,-1.17
2022-12-03T19:08:02.218Z,-1.17
2022-12-03T19:10:31.760Z,-1.16
2022-12-03T19:13:02.128Z,-1.19
2022-12-03T19:15:30.623Z,-1.16
2022-12-03T19:21:57.104Z,-1.18
2022-12-03T19:24:25.622Z,-1.16
2022-12-03T19:26:56.603Z,-1.17
2022-12-03T19:29:25.425Z,-1.14
2022-12-03T19:31:53.271Z,-1.15
2022-12-03T19:34:21.516Z,-1.13
2022-12-03T19:36:49.715Z,-1.13
2022-12-03T19:39:19.100Z,-1.13
2022-12-03T19:41:46.022Z,-1.12
2022-12-03T19:44:17.700Z,-1.13
2022-12-03T19:46:45.301Z,-1.17
2022-12-03T19:49:21.409Z,-1.15
2022-12-03T19:51:50.154Z,-1.12
2022-12-03T19:54:17.089Z,-1.14
2022-12-03T19:56:48.036Z,-1.14
2022-12-03T19:59:15.505Z,-1.12
2022-12-03T20:01:47.132Z,-1.09
2022-12-03T20:04:14.805Z,-1.09
2022-12-03T20:06:42.268Z,-1.12
2022-12-03T20:09:12.112Z,-1.11
2022-12-03T20:11:42.221Z,-1.16
2022-12-03T20:14:18.298Z,-1.14
2022-12-03T20:16:47.498Z,-1.14
2022-12-03T20:19:15.523Z,-1.17
2022-12-03T20:21:42.489Z,-1.15
2022-12-03T20:24:10.687Z,-1.18
2022-12-03T20:26:40.811Z,-1.20
2022-12-03T20:29:10.016Z,-1.19
2022-12-03T20:31:37.348Z,-1.18
2022-12-03T20:34:04.663Z,-1.20
2022-12-03T20:36:37.057Z,-1.18
2022-12-03T20:39:05.453Z,-1.18
2022-12-03T20:41:35.155Z,-1.19
2022-12-03T20:44:03.553Z,-1.20
2022-12-03T20:46:32.248Z,-1.21
2022-12-03T20:48:59.224Z,-1.21
2022-12-03T20:51:27.870Z,-1.14
2022-12-03T20:53:54.654Z,-1.17
2022-12-03T20:56:26.142Z,-1.18
2022-12-03T20:58:53.656Z,-1.20
2022-12-03T21:01:22.569Z,-1.19
2022-12-03T21:03:50.215Z,-1.20
2022-12-03T21:06:17.834Z,-1.22
2022-12-03T21:08:45.183Z,-1.20
2022-12-03T21:11:16.675Z,-1.22
2022-12-03T21:13:44.192Z,-1.23
2022-12-03T21:16:14.543Z,-1.24
2022-12-03T21:18:42.161Z,-1.28
2022-12-03T21:21:09.541Z,-1.33
2022-12-03T21:23:36.931Z,-1.37
2022-12-03T21:26:28.028Z,-1.38
2022-12-03T21:28:58.016Z,-1.33
2022-12-03T21:31:26.824Z,-1.32
2022-12-03T21:33:57.482Z,-1.30
2022-12-03T21:36:25.289Z,-1.31
2022-12-03T21:38:55.091Z,-1.32
2022-12-03T21:41:21.884Z,-1.31
2022-12-03T21:43:48.861Z,-1.29
2022-12-03T21:47:11.700Z,-1.30
2022-12-03T21:49:05.925Z,-1.30
2022-12-03T21:51:32.866Z,-1.34
2022-12-03T21:54:03.654Z,-1.34
2022-12-03T21:56:31.962Z,-1.34
2022-12-03T21:58:59.204Z,-1.34
2022-12-03T22:01:26.873Z,-1.35
2022-12-03T22:03:58.947Z,-1.38
2022-12-03T22:06:25.858Z,-1.42
2022-12-03T22:08:55.011Z,-1.37
2022-12-03T22:11:25.629Z,-1.36
2022-12-03T22:13:55.450Z,-1.33
2022-12-03T22:16:23.024Z,-1.34
2022-12-03T22:18:50.318Z,-1.34
2022-12-03T22:21:18.578Z,-1.35
2022-12-03T22:23:45.693Z,-1.41
2022-12-03T22:26:14.485Z,-1.36
2022-12-03T22:28:49.075Z,-1.35
2022-12-03T22:31:16.320Z,-1.35
2022-12-03T22:33:46.309Z,-1.34
2022-12-03T22:36:20.011Z,-1.34
2022-12-03T22:38:47.754Z,-1.33
2022-12-03T22:41:14.945Z,-1.33
2022-12-03T22:43:42.856Z,-1.33
2022-12-03T22:46:13.052Z,-1.31
2022-12-03T22:48:40.787Z,-1.32
2022-12-03T22:51:14.451Z,-1.36
2022-12-03T22:53:41.346Z,-1.34
2022-12-03T22:56:08.374Z,-1.41
2022-12-03T22:58:35.270Z,-1.43
2022-12-03T23:01:03.048Z,-1.41
2022-12-03T23:03:30.237Z,-1.43
2022-12-03T23:05:57.276Z,-1.45
2022-12-03T23:08:24.411Z,-1.40
2022-12-03T23:10:52.400Z,-1.42
2022-12-03T23:13:19.964Z,-1.39
2022-12-03T23:15:47.601Z,-1.39
2022-12-03T23:18:14.413Z,-1.48
2022-12-03T23:20:42.430Z,-1.52
2022-12-03T23:23:09.637Z,-1.58
2022-12-03T23:25:37.415Z,-1.48
2022-12-03T23:28:04.507Z,-1.48
2022-12-03T23:30:31.390Z,-1.44
2022-12-03T23:33:07.534Z,-1.44
2022-12-03T23:35:43.407Z,-1.45
2022-12-03T23:38:11.006Z,-1.46
2022-12-03T23:40:37.487Z,-1.42
2022-12-03T23:43:04.011Z,-1.39
2022-12-03T23:45:31.874Z,-1.33
2022-12-03T23:47:58.538Z,-1.34
2022-12-03T23:50:25.494Z,-1.39
2022-12-03T23:52:52.020Z,-1.32
2022-12-03T23:55:18.654Z,-1.38
2022-12-03T23:57:45.163Z,-1.39
